sensor_id;sensor_type;location;lat;lon;timestamp;temperature;humidity
39957;DHT22;48483;44.640;7.494;2023-06-14T00:01:58;19.80;99.90
39957;DHT22;48483;44.640;7.494;2023-06-14T00:04:26;19.80;99.90
39957;DHT22;48483;44.640;7.494;2023-06-14T00:06:54;19.80;99.90
39957;DHT22;48483;44.640;7.494;2023-06-14T00:09:23;19.80;99.90
39957;DHT22;48483;44.640;7.494;2023-06-14T00:11:49;19.80;99.90
39957;DHT22;48483;44.640;7.494;2023-06-14T00:14:16;19.80;99.90
39957;DHT22;48483;44.640;7.494;2023-06-14T00:16:43;19.80;99.90
39957;DHT22;48483;44.640;7.494;2023-06-14T00:19:10;19.80;99.90
39957;DHT22;48483;44.640;7.494;2023-06-14T00:21:38;19.80;99.90
39957;DHT22;48483;44.640;7.494;2023-06-14T00:24:05;19.80;99.90
39957;DHT22;48483;44.640;7.494;2023-06-14T00:26:32;19.80;99.90
39957;DHT22;48483;44.640;7.494;2023-06-14T00:28:59;19.80;99.90
39957;DHT22;48483;44.640;7.494;2023-06-14T00:31:27;19.70;99.90
39957;DHT22;48483;44.640;7.494;2023-06-14T00:33:54;19.70;99.90
39957;DHT22;48483;44.640;7.494;2023-06-14T00:36:21;19.70;99.90
39957;DHT22;48483;44.640;7.494;2023-06-14T00:38:49;19.70;99.90
39957;DHT22;48483;44.640;7.494;2023-06-14T00:41:16;19.70;99.90
39957;DHT22;48483;44.640;7.494;2023-06-14T00:43:43;19.70;99.90
39957;DHT22;48483;44.640;7.494;2023-06-14T00:46:09;19.70;99.90
39957;DHT22;48483;44.640;7.494;2023-06-14T00:48:37;19.60;99.90
39957;DHT22;48483;44.640;7.494;2023-06-14T00:51:06;19.60;99.90
39957;DHT22;48483;44.640;7.494;2023-06-14T00:53:33;19.60;99.90
39957;DHT22;48483;44.640;7.494;2023-06-14T00:56:03;19.60;99.90
39957;DHT22;48483;44.640;7.494;2023-06-14T00:58:31;19.60;99.90
39957;DHT22;48483;44.640;7.494;2023-06-14T01:00:58;19.60;99.90
39957;DHT22;48483;44.640;7.494;2023-06-14T01:03:25;19.60;99.90
39957;DHT22;48483;44.640;7.494;2023-06-14T01:06:02;19.60;99.90
39957;DHT22;48483;44.640;7.494;2023-06-14T01:08:40;19.50;99.90
39957;DHT22;48483;44.640;7.494;2023-06-14T01:11:20;19.50;99.90
39957;DHT22;48483;44.640;7.494;2023-06-14T01:13:49;19.50;99.90
39957;DHT22;48483;44.640;7.494;2023-06-14T01:16:17;19.50;99.90
39957;DHT22;48483;44.640;7.494;2023-06-14T01:18:44;19.50;99.90
39957;DHT22;48483;44.640;7.494;2023-06-14T01:21:21;19.50;99.90
39957;DHT22;48483;44.640;7.494;2023-06-14T01:23:51;19.50;99.90
39957;DHT22;48483;44.640;7.494;2023-06-14T01:26:21;19.50;99.90
39957;DHT22;48483;44.640;7.494;2023-06-14T01:28:49;19.50;99.90
39957;DHT22;48483;44.640;7.494;2023-06-14T01:31:19;19.50;99.90
39957;DHT22;48483;44.640;7.494;2023-06-14T01:33:46;19.50;99.90
39957;DHT22;48483;44.640;7.494;2023-06-14T01:36:14;19.50;99.90
39957;DHT22;48483;44.640;7.494;2023-06-14T01:38:42;19.50;99.90
39957;DHT22;48483;44.640;7.494;2023-06-14T01:41:12;19.50;99.90
39957;DHT22;48483;44.640;7.494;2023-06-14T01:43:40;19.50;99.90
39957;DHT22;48483;44.640;7.494;2023-06-14T01:46:08;19.50;99.90
39957;DHT22;48483;44.640;7.494;2023-06-14T01:48:36;19.50;99.90
39957;DHT22;48483;44.640;7.494;2023-06-14T01:51:03;19.50;99.90
39957;DHT22;48483;44.640;7.494;2023-06-14T01:53:30;19.50;99.90
39957;DHT22;48483;44.640;7.494;2023-06-14T01:55:57;19.50;99.90
39957;DHT22;48483;44.640;7.494;2023-06-14T01:58:26;19.50;99.90
39957;DHT22;48483;44.640;7.494;2023-06-14T02:00:53;19.50;99.90
39957;DHT22;48483;44.640;7.494;2023-06-14T02:03:21;19.50;99.90
39957;DHT22;48483;44.640;7.494;2023-06-14T02:05:49;19.50;99.90
39957;DHT22;48483;44.640;7.494;2023-06-14T02:08:17;19.50;99.90
39957;DHT22;48483;44.640;7.494;2023-06-14T02:10:44;19.50;99.90
39957;DHT22;48483;44.640;7.494;2023-06-14T02:13:11;19.50;99.90
39957;DHT22;48483;44.640;7.494;2023-06-14T02:15:41;19.50;99.90
39957;DHT22;48483;44.640;7.494;2023-06-14T02:18:10;19.50;99.90
39957;DHT22;48483;44.640;7.494;2023-06-14T02:20:37;19.40;99.90
39957;DHT22;48483;44.640;7.494;2023-06-14T02:23:04;19.40;99.90
39957;DHT22;48483;44.640;7.494;2023-06-14T02:25:34;19.40;99.90
39957;DHT22;48483;44.640;7.494;2023-06-14T02:28:01;19.30;99.90
39957;DHT22;48483;44.640;7.494;2023-06-14T02:30:28;19.30;99.90
39957;DHT22;48483;44.640;7.494;2023-06-14T02:32:58;19.30;99.90
39957;DHT22;48483;44.640;7.494;2023-06-14T02:35:25;19.20;99.90
39957;DHT22;48483;44.640;7.494;2023-06-14T02:37:53;19.20;99.90
39957;DHT22;48483;44.640;7.494;2023-06-14T02:40:23;19.20;99.90
39957;DHT22;48483;44.640;7.494;2023-06-14T02:42:50;19.30;99.90
39957;DHT22;48483;44.640;7.494;2023-06-14T02:45:17;19.30;99.90
39957;DHT22;48483;44.640;7.494;2023-06-14T02:47:45;19.30;99.90
39957;DHT22;48483;44.640;7.494;2023-06-14T02:50:14;19.30;99.90
39957;DHT22;48483;44.640;7.494;2023-06-14T02:52:42;19.30;99.90
39957;DHT22;48483;44.640;7.494;2023-06-14T02:55:11;19.20;99.90
39957;DHT22;48483;44.640;7.494;2023-06-14T02:57:38;19.30;99.90
39957;DHT22;48483;44.640;7.494;2023-06-14T03:00:07;19.30;99.90
39957;DHT22;48483;44.640;7.494;2023-06-14T03:02:37;19.20;99.90
39957;DHT22;48483;44.640;7.494;2023-06-14T03:05:04;19.20;99.90
39957;DHT22;48483;44.640;7.494;2023-06-14T03:07:34;19.20;99.90
39957;DHT22;48483;44.640;7.494;2023-06-14T03:10:02;19.20;99.90
39957;DHT22;48483;44.640;7.494;2023-06-14T03:12:30;19.20;99.90
39957;DHT22;48483;44.640;7.494;2023-06-14T03:14:58;19.20;99.90
39957;DHT22;48483;44.640;7.494;2023-06-14T03:17:30;19.20;99.90
39957;DHT22;48483;44.640;7.494;2023-06-14T03:20:01;19.20;99.90
39957;DHT22;48483;44.640;7.494;2023-06-14T03:22:27;19.20;99.90
39957;DHT22;48483;44.640;7.494;2023-06-14T03:24:56;19.20;99.90
39957;DHT22;48483;44.640;7.494;2023-06-14T03:27:23;19.10;99.90
39957;DHT22;48483;44.640;7.494;2023-06-14T03:29:50;19.20;99.90
39957;DHT22;48483;44.640;7.494;2023-06-14T03:32:17;19.10;99.90
39957;DHT22;48483;44.640;7.494;2023-06-14T03:34:44;19.10;99.90
39957;DHT22;48483;44.640;7.494;2023-06-14T03:37:17;19.10;99.90
39957;DHT22;48483;44.640;7.494;2023-06-14T03:39:45;19.10;99.90
39957;DHT22;48483;44.640;7.494;2023-06-14T03:42:19;19.10;99.90
39957;DHT22;48483;44.640;7.494;2023-06-14T03:44:47;19.10;99.90
39957;DHT22;48483;44.640;7.494;2023-06-14T03:47:15;19.10;99.90
39957;DHT22;48483;44.640;7.494;2023-06-14T03:49:42;19.10;99.90
39957;DHT22;48483;44.640;7.494;2023-06-14T03:52:09;19.10;99.90
39957;DHT22;48483;44.640;7.494;2023-06-14T03:54:38;19.10;99.90
39957;DHT22;48483;44.640;7.494;2023-06-14T03:57:05;19.10;99.90
39957;DHT22;48483;44.640;7.494;2023-06-14T03:59:34;19.10;99.90
39957;DHT22;48483;44.640;7.494;2023-06-14T04:02:01;19.10;99.90
39957;DHT22;48483;44.640;7.494;2023-06-14T04:04:28;19.10;99.90
39957;DHT22;48483;44.640;7.494;2023-06-14T04:06:56;19.10;99.90
39957;DHT22;48483;44.640;7.494;2023-06-14T04:09:25;19.00;99.90
39957;DHT22;48483;44.640;7.494;2023-06-14T04:11:52;19.00;99.90
39957;DHT22;48483;44.640;7.494;2023-06-14T04:14:18;19.00;99.90
39957;DHT22;48483;44.640;7.494;2023-06-14T04:16:47;19.00;99.90
39957;DHT22;48483;44.640;7.494;2023-06-14T04:19:17;19.00;99.90
39957;DHT22;48483;44.640;7.494;2023-06-14T04:21:43;19.00;99.90
39957;DHT22;48483;44.640;7.494;2023-06-14T04:24:10;18.90;99.90
39957;DHT22;48483;44.640;7.494;2023-06-14T04:26:45;18.90;99.90
39957;DHT22;48483;44.640;7.494;2023-06-14T04:29:15;18.90;99.90
39957;DHT22;48483;44.640;7.494;2023-06-14T04:31:47;18.90;99.90
39957;DHT22;48483;44.640;7.494;2023-06-14T04:34:14;18.90;99.90
39957;DHT22;48483;44.640;7.494;2023-06-14T04:36:49;18.90;99.90
39957;DHT22;48483;44.640;7.494;2023-06-14T04:39:17;18.90;99.90
39957;DHT22;48483;44.640;7.494;2023-06-14T04:41:48;18.90;99.90
39957;DHT22;48483;44.640;7.494;2023-06-14T04:44:19;19.00;99.90
39957;DHT22;48483;44.640;7.494;2023-06-14T04:46:53;19.00;99.90
39957;DHT22;48483;44.640;7.494;2023-06-14T04:49:23;19.00;99.90
39957;DHT22;48483;44.640;7.494;2023-06-14T04:51:49;18.90;99.90
39957;DHT22;48483;44.640;7.494;2023-06-14T04:54:25;18.90;99.90
39957;DHT22;48483;44.640;7.494;2023-06-14T04:56:53;19.00;99.90
39957;DHT22;48483;44.640;7.494;2023-06-14T04:59:25;19.00;99.90
39957;DHT22;48483;44.640;7.494;2023-06-14T05:01:53;19.00;99.90
39957;DHT22;48483;44.640;7.494;2023-06-14T05:04:20;19.00;99.90
39957;DHT22;48483;44.640;7.494;2023-06-14T05:06:48;19.00;99.90
39957;DHT22;48483;44.640;7.494;2023-06-14T05:09:15;18.90;99.90
39957;DHT22;48483;44.640;7.494;2023-06-14T05:11:44;18.90;99.90
39957;DHT22;48483;44.640;7.494;2023-06-14T05:14:12;18.90;99.90
39957;DHT22;48483;44.640;7.494;2023-06-14T05:16:39;18.90;99.90
39957;DHT22;48483;44.640;7.494;2023-06-14T05:19:07;18.90;99.90
39957;DHT22;48483;44.640;7.494;2023-06-14T05:21:34;18.90;99.90
39957;DHT22;48483;44.640;7.494;2023-06-14T05:24:01;18.90;99.90
39957;DHT22;48483;44.640;7.494;2023-06-14T05:26:28;18.90;99.90
39957;DHT22;48483;44.640;7.494;2023-06-14T05:28:55;18.90;99.90
39957;DHT22;48483;44.640;7.494;2023-06-14T05:31:22;18.90;99.90
39957;DHT22;48483;44.640;7.494;2023-06-14T05:33:50;18.90;99.90
39957;DHT22;48483;44.640;7.494;2023-06-14T05:36:19;18.90;99.90
39957;DHT22;48483;44.640;7.494;2023-06-14T05:38:46;18.90;99.90
39957;DHT22;48483;44.640;7.494;2023-06-14T05:41:13;18.90;99.90
39957;DHT22;48483;44.640;7.494;2023-06-14T05:43:39;18.90;99.90
39957;DHT22;48483;44.640;7.494;2023-06-14T05:46:06;18.90;99.90
39957;DHT22;48483;44.640;7.494;2023-06-14T05:48:33;18.90;99.90
39957;DHT22;48483;44.640;7.494;2023-06-14T05:51:00;18.90;99.90
39957;DHT22;48483;44.640;7.494;2023-06-14T05:53:28;18.90;99.90
39957;DHT22;48483;44.640;7.494;2023-06-14T05:55:55;18.90;99.90
39957;DHT22;48483;44.640;7.494;2023-06-14T05:58:22;18.90;99.90
39957;DHT22;48483;44.640;7.494;2023-06-14T06:00:49;18.90;99.90
39957;DHT22;48483;44.640;7.494;2023-06-14T06:03:15;18.90;99.90
39957;DHT22;48483;44.640;7.494;2023-06-14T06:05:42;18.90;99.90
39957;DHT22;48483;44.640;7.494;2023-06-14T06:08:09;18.90;99.90
39957;DHT22;48483;44.640;7.494;2023-06-14T06:10:37;18.90;99.90
39957;DHT22;48483;44.640;7.494;2023-06-14T06:13:04;18.90;99.90
39957;DHT22;48483;44.640;7.494;2023-06-14T06:15:31;18.90;99.90
39957;DHT22;48483;44.640;7.494;2023-06-14T06:17:58;18.90;99.90
39957;DHT22;48483;44.640;7.494;2023-06-14T06:20:24;18.90;99.90
39957;DHT22;48483;44.640;7.494;2023-06-14T06:22:54;18.80;99.90
39957;DHT22;48483;44.640;7.494;2023-06-14T06:25:21;18.80;99.90
39957;DHT22;48483;44.640;7.494;2023-06-14T06:27:50;18.70;99.90
39957;DHT22;48483;44.640;7.494;2023-06-14T06:30:16;18.50;99.90
39957;DHT22;48483;44.640;7.494;2023-06-14T06:32:43;18.60;99.90
39957;DHT22;48483;44.640;7.494;2023-06-14T06:35:10;18.60;99.90
39957;DHT22;48483;44.640;7.494;2023-06-14T06:37:37;18.60;99.90
39957;DHT22;48483;44.640;7.494;2023-06-14T06:40:05;18.50;99.90
39957;DHT22;48483;44.640;7.494;2023-06-14T06:42:32;18.60;99.90
39957;DHT22;48483;44.640;7.494;2023-06-14T06:45:04;18.60;99.90
39957;DHT22;48483;44.640;7.494;2023-06-14T06:47:32;18.60;99.90
39957;DHT22;48483;44.640;7.494;2023-06-14T06:49:59;18.60;99.90
39957;DHT22;48483;44.640;7.494;2023-06-14T06:52:26;18.60;99.90
39957;DHT22;48483;44.640;7.494;2023-06-14T06:54:52;18.60;99.90
39957;DHT22;48483;44.640;7.494;2023-06-14T06:57:21;18.60;99.90
39957;DHT22;48483;44.640;7.494;2023-06-14T06:59:49;18.50;99.90
39957;DHT22;48483;44.640;7.494;2023-06-14T07:02:17;18.50;99.90
39957;DHT22;48483;44.640;7.494;2023-06-14T07:04:44;18.50;99.90
39957;DHT22;48483;44.640;7.494;2023-06-14T07:07:11;18.50;99.90
39957;DHT22;48483;44.640;7.494;2023-06-14T07:09:38;18.50;99.90
39957;DHT22;48483;44.640;7.494;2023-06-14T07:12:05;18.40;99.90
39957;DHT22;48483;44.640;7.494;2023-06-14T07:14:33;18.40;99.90
39957;DHT22;48483;44.640;7.494;2023-06-14T07:16:59;18.40;99.90
39957;DHT22;48483;44.640;7.494;2023-06-14T07:19:28;18.40;99.90
39957;DHT22;48483;44.640;7.494;2023-06-14T07:21:54;18.40;99.90
39957;DHT22;48483;44.640;7.494;2023-06-14T07:24:21;18.40;99.90
39957;DHT22;48483;44.640;7.494;2023-06-14T07:26:48;18.40;99.90
39957;DHT22;48483;44.640;7.494;2023-06-14T07:29:15;18.30;99.90
39957;DHT22;48483;44.640;7.494;2023-06-14T07:31:42;18.30;99.90
39957;DHT22;48483;44.640;7.494;2023-06-14T07:34:09;18.30;99.90
39957;DHT22;48483;44.640;7.494;2023-06-14T07:36:37;18.40;99.90
39957;DHT22;48483;44.640;7.494;2023-06-14T07:39:04;18.30;99.90
39957;DHT22;48483;44.640;7.494;2023-06-14T07:41:32;18.30;99.90
39957;DHT22;48483;44.640;7.494;2023-06-14T07:43:59;18.20;99.90
39957;DHT22;48483;44.640;7.494;2023-06-14T07:46:25;18.20;99.90
39957;DHT22;48483;44.640;7.494;2023-06-14T07:48:52;18.20;99.90
39957;DHT22;48483;44.640;7.494;2023-06-14T07:51:19;18.20;99.90
39957;DHT22;48483;44.640;7.494;2023-06-14T07:53:47;18.20;99.90
39957;DHT22;48483;44.640;7.494;2023-06-14T07:56:14;18.20;99.90
39957;DHT22;48483;44.640;7.494;2023-06-14T07:58:41;18.20;99.90
39957;DHT22;48483;44.640;7.494;2023-06-14T08:01:08;18.30;99.90
39957;DHT22;48483;44.640;7.494;2023-06-14T08:03:35;18.30;99.90
39957;DHT22;48483;44.640;7.494;2023-06-14T08:06:01;18.30;99.90
39957;DHT22;48483;44.640;7.494;2023-06-14T08:08:28;18.30;99.90
39957;DHT22;48483;44.640;7.494;2023-06-14T08:10:56;18.30;99.90
39957;DHT22;48483;44.640;7.494;2023-06-14T08:13:23;18.20;99.90
39957;DHT22;48483;44.640;7.494;2023-06-14T08:15:49;18.30;99.90
39957;DHT22;48483;44.640;7.494;2023-06-14T08:18:16;18.30;99.90
39957;DHT22;48483;44.640;7.494;2023-06-14T08:20:43;18.30;99.90
39957;DHT22;48483;44.640;7.494;2023-06-14T08:23:10;18.30;99.90
39957;DHT22;48483;44.640;7.494;2023-06-14T08:25:37;18.30;99.90
39957;DHT22;48483;44.640;7.494;2023-06-14T08:28:05;18.30;99.90
39957;DHT22;48483;44.640;7.494;2023-06-14T08:30:32;18.30;99.90
39957;DHT22;48483;44.640;7.494;2023-06-14T08:32:59;18.30;99.90
39957;DHT22;48483;44.640;7.494;2023-06-14T08:35:26;18.30;99.90
39957;DHT22;48483;44.640;7.494;2023-06-14T08:37:52;18.30;99.90
39957;DHT22;48483;44.640;7.494;2023-06-14T08:40:21;18.30;99.90
39957;DHT22;48483;44.640;7.494;2023-06-14T08:42:50;18.30;99.90
39957;DHT22;48483;44.640;7.494;2023-06-14T08:45:19;18.30;99.90
39957;DHT22;48483;44.640;7.494;2023-06-14T08:47:47;18.30;99.90
39957;DHT22;48483;44.640;7.494;2023-06-14T08:50:20;18.30;99.90
39957;DHT22;48483;44.640;7.494;2023-06-14T08:52:51;18.40;99.90
39957;DHT22;48483;44.640;7.494;2023-06-14T08:55:20;18.30;99.90
39957;DHT22;48483;44.640;7.494;2023-06-14T08:57:53;18.30;99.90
39957;DHT22;48483;44.640;7.494;2023-06-14T09:00:22;18.40;99.90
39957;DHT22;48483;44.640;7.494;2023-06-14T09:02:50;18.40;99.90
39957;DHT22;48483;44.640;7.494;2023-06-14T09:05:23;18.40;99.90
39957;DHT22;48483;44.640;7.494;2023-06-14T09:07:50;18.40;99.90
39957;DHT22;48483;44.640;7.494;2023-06-14T09:10:17;18.40;99.90
39957;DHT22;48483;44.640;7.494;2023-06-14T09:12:43;18.40;99.90
39957;DHT22;48483;44.640;7.494;2023-06-14T09:15:11;18.40;99.90
39957;DHT22;48483;44.640;7.494;2023-06-14T09:17:39;18.40;99.90
39957;DHT22;48483;44.640;7.494;2023-06-14T09:20:07;18.40;99.90
39957;DHT22;48483;44.640;7.494;2023-06-14T09:22:37;18.50;99.90
39957;DHT22;48483;44.640;7.494;2023-06-14T09:25:05;18.50;99.90
39957;DHT22;48483;44.640;7.494;2023-06-14T09:27:32;18.50;99.90
39957;DHT22;48483;44.640;7.494;2023-06-14T09:29:59;18.60;99.90
39957;DHT22;48483;44.640;7.494;2023-06-14T09:32:26;18.60;99.90
39957;DHT22;48483;44.640;7.494;2023-06-14T09:34:54;18.60;99.90
39957;DHT22;48483;44.640;7.494;2023-06-14T09:37:28;18.60;99.90
39957;DHT22;48483;44.640;7.494;2023-06-14T09:39:56;18.60;99.90
39957;DHT22;48483;44.640;7.494;2023-06-14T09:42:22;18.60;99.90
39957;DHT22;48483;44.640;7.494;2023-06-14T09:44:52;18.60;99.90
39957;DHT22;48483;44.640;7.494;2023-06-14T09:47:20;18.60;99.90
39957;DHT22;48483;44.640;7.494;2023-06-14T09:49:47;18.70;99.90
39957;DHT22;48483;44.640;7.494;2023-06-14T09:52:17;18.80;99.90
39957;DHT22;48483;44.640;7.494;2023-06-14T09:54:46;18.80;99.90
39957;DHT22;48483;44.640;7.494;2023-06-14T09:57:15;18.90;99.90
39957;DHT22;48483;44.640;7.494;2023-06-14T09:59:43;18.90;99.90
39957;DHT22;48483;44.640;7.494;2023-06-14T10:02:14;19.00;99.90
39957;DHT22;48483;44.640;7.494;2023-06-14T10:04:48;19.00;99.90
39957;DHT22;48483;44.640;7.494;2023-06-14T10:07:19;19.00;99.90
39957;DHT22;48483;44.640;7.494;2023-06-14T10:09:47;19.10;99.90
39957;DHT22;48483;44.640;7.494;2023-06-14T10:12:16;19.10;99.90
39957;DHT22;48483;44.640;7.494;2023-06-14T10:14:48;19.10;99.90
39957;DHT22;48483;44.640;7.494;2023-06-14T10:17:22;19.10;99.90
39957;DHT22;48483;44.640;7.494;2023-06-14T10:19:54;19.00;99.90
39957;DHT22;48483;44.640;7.494;2023-06-14T10:22:29;19.10;99.90
39957;DHT22;48483;44.640;7.494;2023-06-14T10:24:57;19.20;99.90
39957;DHT22;48483;44.640;7.494;2023-06-14T10:27:23;19.30;99.90
39957;DHT22;48483;44.640;7.494;2023-06-14T10:30:08;19.30;99.90
39957;DHT22;48483;44.640;7.494;2023-06-14T10:32:35;19.40;99.90
39957;DHT22;48483;44.640;7.494;2023-06-14T10:35:22;19.50;99.90
39957;DHT22;48483;44.640;7.494;2023-06-14T10:37:50;19.60;99.90
39957;DHT22;48483;44.640;7.494;2023-06-14T10:40:30;19.70;99.90
39957;DHT22;48483;44.640;7.494;2023-06-14T10:42:56;19.80;99.90
39957;DHT22;48483;44.640;7.494;2023-06-14T10:45:23;19.80;99.90
39957;DHT22;48483;44.640;7.494;2023-06-14T10:47:49;19.90;99.90
39957;DHT22;48483;44.640;7.494;2023-06-14T10:50:27;20.00;99.90
39957;DHT22;48483;44.640;7.494;2023-06-14T10:52:57;20.10;99.90
39957;DHT22;48483;44.640;7.494;2023-06-14T10:55:23;20.20;99.90
39957;DHT22;48483;44.640;7.494;2023-06-14T10:57:51;20.30;99.90
39957;DHT22;48483;44.640;7.494;2023-06-14T11:00:20;20.40;99.90
39957;DHT22;48483;44.640;7.494;2023-06-14T11:05:51;20.60;99.90
39957;DHT22;48483;44.640;7.494;2023-06-14T11:08:36;20.60;99.90
39957;DHT22;48483;44.640;7.494;2023-06-14T11:11:06;20.70;99.90
39957;DHT22;48483;44.640;7.494;2023-06-14T11:13:33;20.70;99.90
39957;DHT22;48483;44.640;7.494;2023-06-14T11:15:59;20.80;99.90
39957;DHT22;48483;44.640;7.494;2023-06-14T11:18:26;20.90;99.90
39957;DHT22;48483;44.640;7.494;2023-06-14T11:20:54;20.90;99.90
39957;DHT22;48483;44.640;7.494;2023-06-14T11:23:21;20.90;99.90
39957;DHT22;48483;44.640;7.494;2023-06-14T11:25:53;20.90;99.90
39957;DHT22;48483;44.640;7.494;2023-06-14T11:28:20;20.90;99.90
39957;DHT22;48483;44.640;7.494;2023-06-14T11:30:48;21.00;99.90
39957;DHT22;48483;44.640;7.494;2023-06-14T11:33:17;21.00;99.90
39957;DHT22;48483;44.640;7.494;2023-06-14T11:35:44;21.00;99.90
39957;DHT22;48483;44.640;7.494;2023-06-14T11:38:12;21.00;99.90
39957;DHT22;48483;44.640;7.494;2023-06-14T11:40:39;21.10;99.90
39957;DHT22;48483;44.640;7.494;2023-06-14T11:43:06;21.20;99.90
39957;DHT22;48483;44.640;7.494;2023-06-14T11:45:33;21.20;99.90
39957;DHT22;48483;44.640;7.494;2023-06-14T11:48:00;21.30;99.90
39957;DHT22;48483;44.640;7.494;2023-06-14T11:50:27;21.30;99.90
39957;DHT22;48483;44.640;7.494;2023-06-14T11:52:54;21.30;99.90
39957;DHT22;48483;44.640;7.494;2023-06-14T11:55:22;21.30;99.90
39957;DHT22;48483;44.640;7.494;2023-06-14T11:57:49;21.40;99.90
39957;DHT22;48483;44.640;7.494;2023-06-14T12:00:18;21.40;99.90
39957;DHT22;48483;44.640;7.494;2023-06-14T12:02:52;21.60;99.90
39957;DHT22;48483;44.640;7.494;2023-06-14T12:05:21;21.70;99.90
39957;DHT22;48483;44.640;7.494;2023-06-14T12:07:48;21.60;99.90
39957;DHT22;48483;44.640;7.494;2023-06-14T12:10:14;21.60;99.90
39957;DHT22;48483;44.640;7.494;2023-06-14T12:12:42;21.70;99.90
39957;DHT22;48483;44.640;7.494;2023-06-14T12:15:09;21.70;99.90
39957;DHT22;48483;44.640;7.494;2023-06-14T12:17:39;21.80;99.90
39957;DHT22;48483;44.640;7.494;2023-06-14T12:20:08;21.90;99.90
39957;DHT22;48483;44.640;7.494;2023-06-14T12:22:51;21.90;99.90
39957;DHT22;48483;44.640;7.494;2023-06-14T12:25:27;22.10;99.90
39957;DHT22;48483;44.640;7.494;2023-06-14T12:27:54;22.20;99.90
39957;DHT22;48483;44.640;7.494;2023-06-14T12:30:20;22.30;99.90
39957;DHT22;48483;44.640;7.494;2023-06-14T12:32:48;22.30;99.90
39957;DHT22;48483;44.640;7.494;2023-06-14T12:35:15;22.40;99.90
39957;DHT22;48483;44.640;7.494;2023-06-14T12:37:41;22.40;99.90
39957;DHT22;48483;44.640;7.494;2023-06-14T12:40:09;22.40;99.90
39957;DHT22;48483;44.640;7.494;2023-06-14T12:42:37;22.40;99.90
39957;DHT22;48483;44.640;7.494;2023-06-14T12:45:05;22.60;99.90
39957;DHT22;48483;44.640;7.494;2023-06-14T12:47:31;22.70;99.90
39957;DHT22;48483;44.640;7.494;2023-06-14T12:49:59;22.70;99.90
39957;DHT22;48483;44.640;7.494;2023-06-14T12:52:26;22.60;99.90
39957;DHT22;48483;44.640;7.494;2023-06-14T12:54:53;22.50;99.90
39957;DHT22;48483;44.640;7.494;2023-06-14T12:57:19;22.50;99.90
39957;DHT22;48483;44.640;7.494;2023-06-14T12:59:46;22.50;99.90
39957;DHT22;48483;44.640;7.494;2023-06-14T13:02:13;22.50;99.90
39957;DHT22;48483;44.640;7.494;2023-06-14T13:04:40;22.70;99.90
39957;DHT22;48483;44.640;7.494;2023-06-14T13:07:08;22.80;99.90
39957;DHT22;48483;44.640;7.494;2023-06-14T13:09:35;22.80;99.90
39957;DHT22;48483;44.640;7.494;2023-06-14T13:12:01;22.90;99.90
39957;DHT22;48483;44.640;7.494;2023-06-14T13:14:28;22.90;99.90
39957;DHT22;48483;44.640;7.494;2023-06-14T13:16:54;23.00;99.90
39957;DHT22;48483;44.640;7.494;2023-06-14T13:19:21;23.00;99.90
39957;DHT22;48483;44.640;7.494;2023-06-14T13:21:48;23.10;99.90
39957;DHT22;48483;44.640;7.494;2023-06-14T13:24:16;23.10;99.90
39957;DHT22;48483;44.640;7.494;2023-06-14T13:26:43;23.10;99.90
39957;DHT22;48483;44.640;7.494;2023-06-14T13:29:09;23.10;99.90
39957;DHT22;48483;44.640;7.494;2023-06-14T13:31:36;23.10;99.90
39957;DHT22;48483;44.640;7.494;2023-06-14T13:34:03;23.10;99.90
39957;DHT22;48483;44.640;7.494;2023-06-14T13:36:30;23.10;99.90
39957;DHT22;48483;44.640;7.494;2023-06-14T13:38:57;23.00;99.90
39957;DHT22;48483;44.640;7.494;2023-06-14T13:41:28;23.00;99.90
39957;DHT22;48483;44.640;7.494;2023-06-14T13:44:00;23.00;99.90
39957;DHT22;48483;44.640;7.494;2023-06-14T13:46:27;23.00;99.90
39957;DHT22;48483;44.640;7.494;2023-06-14T13:48:53;23.10;99.90
39957;DHT22;48483;44.640;7.494;2023-06-14T13:51:20;23.20;99.90
39957;DHT22;48483;44.640;7.494;2023-06-14T13:53:48;23.20;99.90
39957;DHT22;48483;44.640;7.494;2023-06-14T13:56:15;23.20;99.90
39957;DHT22;48483;44.640;7.494;2023-06-14T13:58:43;23.30;99.90
39957;DHT22;48483;44.640;7.494;2023-06-14T14:01:10;23.30;99.90
39957;DHT22;48483;44.640;7.494;2023-06-14T14:03:38;23.30;99.90
39957;DHT22;48483;44.640;7.494;2023-06-14T14:06:04;23.30;99.90
39957;DHT22;48483;44.640;7.494;2023-06-14T14:08:32;23.30;99.90
39957;DHT22;48483;44.640;7.494;2023-06-14T14:10:59;23.30;99.90
39957;DHT22;48483;44.640;7.494;2023-06-14T14:13:25;23.20;99.90
39957;DHT22;48483;44.640;7.494;2023-06-14T14:15:53;23.20;99.90
39957;DHT22;48483;44.640;7.494;2023-06-14T14:18:20;23.20;99.90
39957;DHT22;48483;44.640;7.494;2023-06-14T14:20:47;23.20;99.90
39957;DHT22;48483;44.640;7.494;2023-06-14T14:23:14;23.20;99.90
39957;DHT22;48483;44.640;7.494;2023-06-14T14:25:40;23.20;99.90
39957;DHT22;48483;44.640;7.494;2023-06-14T14:28:07;23.30;99.90
39957;DHT22;48483;44.640;7.494;2023-06-14T14:30:34;23.40;99.90
39957;DHT22;48483;44.640;7.494;2023-06-14T14:33:02;23.40;99.90
39957;DHT22;48483;44.640;7.494;2023-06-14T14:35:28;23.40;99.90
39957;DHT22;48483;44.640;7.494;2023-06-14T14:37:56;23.40;99.90
39957;DHT22;48483;44.640;7.494;2023-06-14T14:40:23;23.40;99.90
39957;DHT22;48483;44.640;7.494;2023-06-14T14:42:50;23.30;99.90
39957;DHT22;48483;44.640;7.494;2023-06-14T14:45:16;23.40;99.90
39957;DHT22;48483;44.640;7.494;2023-06-14T14:47:43;23.30;99.90
39957;DHT22;48483;44.640;7.494;2023-06-14T14:50:11;23.30;99.90
39957;DHT22;48483;44.640;7.494;2023-06-14T14:52:38;23.20;99.90
39957;DHT22;48483;44.640;7.494;2023-06-14T14:55:05;23.20;99.90
39957;DHT22;48483;44.640;7.494;2023-06-14T14:57:32;23.10;99.90
39957;DHT22;48483;44.640;7.494;2023-06-14T14:59:59;23.20;99.90
39957;DHT22;48483;44.640;7.494;2023-06-14T15:02:25;23.20;99.90
39957;DHT22;48483;44.640;7.494;2023-06-14T15:04:52;23.30;99.90
39957;DHT22;48483;44.640;7.494;2023-06-14T15:07:20;23.50;99.90
39957;DHT22;48483;44.640;7.494;2023-06-14T15:09:46;23.50;99.90
39957;DHT22;48483;44.640;7.494;2023-06-14T15:12:16;23.40;99.90
39957;DHT22;48483;44.640;7.494;2023-06-14T15:14:43;23.50;99.90
39957;DHT22;48483;44.640;7.494;2023-06-14T15:17:10;23.60;99.90
39957;DHT22;48483;44.640;7.494;2023-06-14T15:19:36;23.70;99.90
39957;DHT22;48483;44.640;7.494;2023-06-14T15:22:03;23.70;99.90
39957;DHT22;48483;44.640;7.494;2023-06-14T15:24:31;23.70;99.90
39957;DHT22;48483;44.640;7.494;2023-06-14T15:26:59;23.80;99.90
39957;DHT22;48483;44.640;7.494;2023-06-14T15:29:25;23.80;99.90
39957;DHT22;48483;44.640;7.494;2023-06-14T15:31:52;23.80;99.90
39957;DHT22;48483;44.640;7.494;2023-06-14T15:34:21;23.80;99.90
39957;DHT22;48483;44.640;7.494;2023-06-14T15:36:47;23.80;99.90
39957;DHT22;48483;44.640;7.494;2023-06-14T15:39:14;23.90;99.90